Latest Weather Observations for Mount Magnet Airport

IDW60801

Issued at 6:02 am WST Monday 22 December 2014 (issued every 30 minutes, with the page automatically refreshed every 10 minutes)

About weather observations | Map of weather stations | Latest weather observations for WA | Other Formats
Station Details ID: 007600 Name: MOUNT MAGNET AERO Lat: -28.12 Lon: 117.84 Height: 407.0 m
Data from the previous 72 hours. | See also: Recent months at Mount Magnet Airport
Date/Time
WST
Temp
°C
App
Temp
°C
Dew
Point
Rel
Hum
%
Delta-T
°C
Wind Press
QNH
hPa
Press
MSL
hPa
Rain
since 9 am
mm
Dir
 
Spd
km/h
Gust
km/h
Spd
kts
Gust
kts
22/06:00am 21.3 17.7 11.9 55 5.4 ESE 22 35 12 19 1014.7 1011.9 0.0
22/05:30am 20.5 17.8 11.7 57 5.0 ESE 17 20 9 11 1014.3 1011.5 0.0
22/05:00am 20.4 18.1 11.6 57 5.0 ESE 15 20 8 11 1014.0 1011.1 0.0
22/04:30am 20.7 18.0 11.6 56 5.1 SE 17 20 9 11 1013.6 1010.8 0.0
22/04:00am 21.0 18.3 11.6 55 5.3 SE 17 20 9 11 1013.5 1010.7 0.0
22/03:30am 21.4 19.1 11.7 54 5.5 ESE 15 20 8 11 1013.4 1010.6 0.0
22/03:00am 21.6 18.9 11.6 53 5.7 ESE 17 22 9 12 1013.2 1010.4 0.0
22/02:30am 22.0 18.7 11.7 52 5.9 ESE 20 26 11 14 1013.2 1010.4 0.0
22/02:00am 22.3 19.2 11.7 51 6.1 ESE 19 26 10 14 1013.3 1010.5 0.0
22/01:30am 22.7 18.6 11.4 49 6.4 ESE 24 30 13 16 1013.3 1010.5 0.0
22/01:00am 23.1 18.8 10.9 46 6.9 ESE 24 33 13 18 1013.4 1010.6 0.0
22/12:30am 23.5 18.4 10.6 44 7.3 ESE 28 39 15 21 1013.5 1010.7 0.0
22/12:00am 24.0 18.9 10.7 43 7.5 ESE 28 39 15 21 1013.6 1010.8 0.0
 
Date/Time
WST
Temp
°C
App
Temp
°C
Dew
Point
Rel
Hum
%
Delta-T
°C
Wind Press
QNH
hPa
Press
MSL
hPa
Rain
since 9 am
mm
Dir
 
Spd
km/h
Gust
km/h
Spd
kts
Gust
kts
21/11:30pm 24.4 19.2 10.3 41 7.9 ESE 28 43 15 23 1013.6 1010.8 0.0
21/11:00pm 25.0 19.4 10.1 39 8.4 ESE 30 41 16 22 1013.6 1010.8 0.0
21/10:30pm 25.6 19.5 9.8 37 8.9 SE 32 41 17 22 1013.4 1010.6 0.0
21/10:00pm 26.4 20.8 10.1 36 9.2 SE 30 41 16 22 1013.2 1010.4 0.0
21/09:30pm 27.3 22.3 9.6 33 10.0 SE 26 43 14 23 1012.9 1010.1 0.0
21/09:00pm 28.2 24.2 9.0 30 10.8 SSE 20 28 11 15 1012.6 1009.8 0.0
21/08:30pm 28.5 24.6 8.7 29 11.1 SSE 19 24 10 13 1012.4 1009.6 0.0
21/08:00pm 28.9 24.4 8.6 28 11.4 S 22 28 12 15 1012.1 1009.3 0.0
21/07:30pm 29.3 24.8 8.4 27 11.7 SSE 22 30 12 16 1011.8 1008.9 0.0
21/07:00pm 29.7 24.5 8.7 27 11.8 S 26 33 14 18 1011.2 1008.4 0.0
21/06:30pm 30.4 25.0 8.2 25 12.4 SSE 26 33 14 18 1010.9 1008.1 0.0
21/06:00pm 31.1 25.6 9.3 26 12.5 SSE 28 46 15 25 1010.6 1007.8 0.0
21/05:52pm 31.2 25.8 9.4 26 12.5 S 28 46 15 25 1010.4 1007.6 0.0
21/05:30pm 31.2 25.6 10.0 27 12.3 S 30 43 16 23 1010.4 1007.6 0.0
21/05:00pm 31.5 26.3 10.2 27 12.4 S 28 41 15 22 1010.3 1007.5 0.0
21/04:30pm 31.7 26.8 9.8 26 12.7 S 26 35 14 19 1010.2 1007.4 0.0
21/04:00pm 32.4 27.9 9.9 25 13.1 SSE 24 43 13 23 1010.1 1007.3 0.0
21/03:30pm 32.4 28.6 9.9 25 13.1 S 20 39 11 21 1010.4 1007.6 0.0
21/03:00pm 32.8 28.2 9.6 24 13.4 SSW 24 37 13 20 1010.7 1007.9 0.0
21/02:30pm 31.5 27.9 9.7 26 12.6 SW 19 32 10 17 1011.1 1008.3 0.0
21/02:00pm 31.2 27.6 10.0 27 12.3 S 19 32 10 17 1011.2 1008.4 0.0
21/01:30pm 30.6 27.2 10.5 29 11.7 SSW 19 28 10 15 1011.7 1008.8 0.0
21/01:00pm 31.9 29.1 13.2 32 11.4 SW 20 33 11 18 1011.8 1008.9 0.0
21/12:30pm 30.9 28.0 12.8 33 10.9 S 20 32 11 17 1012.1 1009.3 0.0
21/12:00pm 29.9 26.9 13.6 36 9.9 S 22 35 12 19 1012.3 1009.5 0.0
21/11:30am 30.1 27.3 14.2 38 9.8 S 22 33 12 18 1012.5 1009.7 0.0
21/11:00am 28.1 25.3 14.3 42 8.4 S 22 33 12 18 1012.7 1009.9 0.0
21/10:30am 27.8 25.0 14.4 43 8.2 S 22 35 12 19 1012.9 1010.1 0.0
21/10:00am 27.9 24.9 14.9 45 8.0 S 24 35 13 19 1012.9 1010.1 0.0
21/09:30am 26.5 23.9 14.9 49 7.1 SSW 22 32 12 17 1012.9 1010.1 0.0
21/09:00am 25.6 23.4 15.0 52 6.5 S 20 28 11 15 1013.0 1010.2 0.0
21/08:30am 24.6 22.0 15.0 55 5.8 SSE 22 32 12 17 1012.9 1010.1 0.0
21/08:00am 23.6 20.3 14.9 58 5.3 S 26 32 14 17 1012.8 1010.0 0.0
21/07:30am 23.0 19.6 14.8 60 4.9 S 26 33 14 18 1012.6 1009.8 0.0
21/07:00am 22.5 19.2 15.1 63 4.5 SSE 26 32 14 17 1012.6 1009.8 0.0
21/06:30am 21.8 18.8 14.9 65 4.2 SSE 24 30 13 16 1012.5 1009.7 0.0
21/06:00am 21.2 19.0 14.8 67 3.8 S 20 26 11 14 1012.2 1009.4 0.0
21/05:30am 21.0 19.0 14.9 68 3.7 S 19 24 10 13 1011.9 1009.0 0.0
21/05:00am 21.2 19.6 15.1 68 3.7 S 17 20 9 11 1011.4 1008.5 0.0
21/04:30am 21.6 20.0 15.0 66 4.0 SSW 17 20 9 11 1010.9 1008.1 0.0
21/04:00am 21.9 20.2 14.8 64 4.3 S 17 24 9 13 1010.7 1007.9 0.0
21/03:30am 21.8 20.4 13.4 59 4.9 SW 13 17 7 9 1010.4 1007.6 0.0
21/03:00am 22.0 20.1 13.1 57 5.2 SW 15 20 8 11 1010.2 1007.4 0.0
21/02:30am 22.3 20.7 12.8 55 5.5 SW 13 19 7 10 1010.1 1007.3 0.0
21/02:00am 22.6 20.2 12.5 53 5.9 SW 17 20 9 11 1010.2 1007.4 0.0
21/01:30am 23.0 20.1 12.3 51 6.2 SW 19 24 10 13 1010.1 1007.3 0.0
21/01:00am 23.6 20.5 11.6 47 6.9 SW 19 22 10 12 1010.1 1007.3 0.0
21/12:30am 24.1 20.5 10.7 43 7.6 SW 20 28 11 15 1010.3 1007.5 0.0
21/12:00am 24.7 20.3 9.0 37 8.7 SW 22 30 12 16 1010.4 1007.6 0.0
 
Date/Time
WST
Temp
°C
App
Temp
°C
Dew
Point
Rel
Hum
%
Delta-T
°C
Wind Press
QNH
hPa
Press
MSL
hPa
Rain
since 9 am
mm
Dir
 
Spd
km/h
Gust
km/h
Spd
kts
Gust
kts
20/11:30pm 25.3 20.3 7.9 33 9.4 SW 24 32 13 17 1010.5 1007.7 0.0
20/11:00pm 25.9 21.6 7.0 30 10.1 SW 19 24 10 13 1010.5 1007.7 0.0
20/10:30pm 26.6 22.1 7.1 29 10.5 SW 20 28 11 15 1010.4 1007.6 0.0
20/10:00pm 27.4 22.1 6.8 27 11.1 SW 24 33 13 18 1010.4 1007.6 0.0
20/09:30pm 28.1 22.8 6.8 26 11.5 SSW 24 39 13 21 1010.3 1007.5 0.0
20/09:00pm 29.0 22.2 7.0 25 12.0 SSW 32 46 17 25 1009.9 1007.1 0.0
20/08:30pm 29.8 23.9 7.7 25 12.2 SW 28 39 15 21 1009.3 1006.4 0.0
20/08:00pm 30.7 24.4 7.2 23 13.0 SW 30 43 16 23 1008.8 1005.9 0.0
20/07:30pm 31.6 26.0 7.3 22 13.5 SW 26 35 14 19 1008.1 1005.3 0.0
20/07:00pm 32.4 25.7 7.3 21 14.0 SW 32 43 17 23 1007.7 1004.9 0.0
20/06:30pm 33.4 27.5 7.4 20 14.6 WSW 28 35 15 19 1007.4 1004.5 0.0
20/06:10pm 33.6 27.7 7.5 20 14.7 WSW 28 46 15 25 1007.3 1004.4 0.0
20/06:00pm 33.5 26.9 5.9 18 15.2 WSW 30 43 16 23 1007.3 1004.4 0.0
20/05:30pm 34.2 27.7 8.0 20 14.9 WSW 32 41 17 22 1007.0 1004.1 0.0
20/05:03pm 34.7 28.6 8.4 20 15.1 WSW 30 50 16 27 1007.0 1004.1 0.0
20/05:00pm 34.8 29.0 9.3 21 14.9 WSW 30 41 16 22 1007.1 1004.2 0.0
20/04:30pm 35.3 29.8 10.4 22 14.7 WSW 30 43 16 23 1007.1 1004.2 0.0
20/04:27pm 34.5 29.0 10.4 23 14.2 WSW 30 43 16 23 1007.2 1004.3 0.0
20/04:00pm 35.0 29.2 10.8 23 14.4 W 32 44 17 24 1007.4 1004.5 0.0
20/03:30pm 34.8 29.5 11.2 24 14.1 WSW 30 41 16 22 1007.8 1005.0 0.0
20/03:00pm 34.3 29.8 12.6 27 13.3 WSW 28 41 15 22 1008.1 1005.3 0.0
20/02:30pm 34.7 30.1 12.4 26 13.6 WSW 28 41 15 22 1008.3 1005.5 0.0
20/02:00pm 33.8 28.8 12.2 27 13.1 W 30 43 16 23 1008.6 1005.8 0.0
20/01:30pm 35.6 30.9 11.9 24 14.4 W 28 41 15 22 1008.8 1005.9 0.0
20/01:00pm 34.1 29.7 13.0 28 12.9 WSW 28 39 15 21 1009.1 1006.2 0.0
20/12:30pm 33.5 29.3 13.5 29 12.3 WSW 28 41 15 22 1009.2 1006.3 0.0
20/12:00pm 32.7 28.9 14.8 34 11.2 WSW 28 39 15 21 1009.3 1006.4 0.0
20/11:30am 32.9 29.7 15.4 35 11.1 W 26 39 14 21 1009.5 1006.6 0.0
20/11:00am 32.7 30.7 16.5 37 10.4 W 22 35 12 19 1009.6 1006.7 0.0
20/10:30am 32.3 30.4 16.6 39 10.1 W 22 33 12 18 1009.8 1007.0 0.0
20/10:00am 32.4 31.3 17.8 41 9.5 W 20 33 11 18 1009.7 1006.9 0.0
20/09:30am 32.0 30.8 17.5 42 9.4 NNW 20 30 11 16 1009.7 1006.9 0.0
20/09:00am 30.7 29.9 18.1 47 8.2 NW 19 26 10 14 1009.9 1007.1 2.4
20/08:30am 30.3 29.1 18.4 49 7.8 NNW 22 30 12 16 1010.0 1007.2 2.4
20/08:00am 29.4 28.2 18.5 52 7.1 NNW 22 30 12 16 1010.2 1007.4 2.4
20/07:30am 27.9 28.6 18.9 58 5.9 N 13 19 7 10 1010.4 1007.6 2.4
20/07:00am 27.0 28.2 19.1 62 5.2 N 11 15 6 8 1010.4 1007.6 2.4
20/06:30am 25.6 27.4 18.8 66 4.4 NW 7 11 4 6 1010.4 1007.6 2.4
20/06:00am 24.8 26.8 19.2 71 3.6 NNW 7 9 4 5 1010.0 1007.2 2.4
20/05:30am 24.2 26.2 19.1 73 3.3 NNW 7 13 4 7 1009.8 1007.0 2.4
20/05:00am 24.3 23.9 18.9 72 3.5 NE 19 26 10 14 1009.0 1006.1 2.4
20/04:30am 24.6 26.2 19.2 72 3.5 ESE 9 11 5 6 1009.5 1006.6 2.4
20/04:00am 24.7 26.9 19.3 72 3.5 E 6 11 3 6 1009.5 1006.6 2.4
20/03:30am 24.5 25.4 19.3 73 3.4 NNE 13 19 7 10 1009.3 1006.4 2.4
20/03:00am 24.7 26.0 19.3 72 3.5 NE 11 15 6 8 1009.2 1006.3 2.4
20/02:30am 25.0 26.3 19.4 71 3.7 NE 11 15 6 8 1009.7 1006.9 2.4
20/02:00am 25.0 27.0 19.1 70 3.8 NE 7 13 4 7 1009.9 1007.1 2.4
20/01:30am 25.1 25.6 19.2 70 3.8 NNE 15 19 8 10 1009.7 1006.9 2.4
20/01:00am 25.3 26.2 19.2 69 4.0 NE 13 17 7 9 1010.3 1007.5 2.4
20/12:30am 25.5 26.6 18.9 67 4.3 NE 11 15 6 8 1010.8 1008.0 2.4
20/12:00am 25.6 26.8 19.0 67 4.3 NE 11 15 6 8 1010.8 1008.0 2.4
 
Date/Time
WST
Temp
°C
App
Temp
°C
Dew
Point
Rel
Hum
%
Delta-T
°C
Wind Press
QNH
hPa
Press
MSL
hPa
Rain
since 9 am
mm
Dir
 
Spd
km/h
Gust
km/h
Spd
kts
Gust
kts
19/11:30pm 25.6 24.6 18.8 66 4.4 NE 22 30 12 16 1010.5 1007.7 2.4
19/11:00pm 25.7 24.2 18.6 65 4.6 NE 24 32 13 17 1010.3 1007.5 2.4
19/10:30pm 26.2 24.6 18.3 61 5.1 ENE 24 33 13 18 1010.7 1007.9 2.4
19/10:00pm 26.6 26.3 18.2 60 5.4 ENE 17 24 9 13 1011.7 1008.8 2.4
19/09:30pm 26.9 26.2 18.2 59 5.6 ENE 19 28 10 15 1011.5 1008.6 2.4
19/09:00pm 27.3 26.5 18.0 56 6.0 ENE 19 26 10 14 1011.2 1008.4 2.4
19/08:30pm 27.7 26.9 17.2 52 6.7 ENE 17 24 9 13 1010.6 1007.8 2.4
19/08:00pm 28.1 27.0 17.3 52 6.9 ENE 19 28 10 15 1010.3 1007.5 2.4
19/07:30pm 28.4 27.3 17.3 51 7.1 E 19 26 10 14 1009.8 1007.0 2.4
19/07:00pm 29.1 27.4 17.3 49 7.6 E 22 28 12 15 1009.9 1007.1 2.4
19/06:30pm 29.3 27.5 17.8 50 7.4 E 24 32 13 17 1009.5 1006.6 2.4
19/06:00pm 29.9 28.5 18.7 51 7.4 ENE 24 32 13 17 1009.1 1006.2 2.4
19/05:30pm 31.1 30.7 19.4 49 7.8 ENE 20 28 11 15 1009.0 1006.1 2.4
19/05:00pm 29.9 30.1 20.5 57 6.3 E 20 26 11 14 1008.5 1005.7 2.4
19/04:30pm 30.5 31.0 20.1 53 7.0 ENE 17 20 9 11 1008.3 1005.5 2.2
19/04:00pm 30.9 31.1 19.3 50 7.7 ENE 17 28 9 15 1009.3 1006.4 2.2
19/03:30pm 29.2 28.2 18.9 53 6.8 SSE 22 32 12 17 1008.9 1006.0 2.2
19/03:08pm 25.6 23.5 19.7 70 3.9 SSW 30 41 16 22 1009.8 1007.0 2.2
19/03:00pm 25.9 22.2 20.0 70 3.9 SW 39 57 21 31 1010.4 1007.6 2.2
19/02:56pm 26.3 23.2 19.7 67 4.3 SW 35 57 19 31 1010.5 1007.7 2.2
19/02:51pm 27.7 26.1 19.2 60 5.6 SW 26 57 14 31 1010.6 1007.8 2.2
19/02:30pm 29.7 29.9 16.8 45 8.2 ESE 11 17 6 9 1008.9 1006.0 2.0
19/02:10pm 27.3 24.0 18.3 58 5.8 NE 33 61 18 33 1009.2 1006.3 2.0
19/02:05pm 26.4 19.9 17.5 58 5.7 N 48 72 26 39 1009.4 1006.5 2.0
19/02:04pm 26.0 19.1 17.6 60 5.4 N 50 72 27 39 1009.5 1006.6 2.0
19/02:00pm 26.1 18.2 18.2 61 5.1 NNW 57 83 31 45 1009.7 1006.9 2.0
19/01:53pm 25.8 20.0 20.8 74 3.3 NNW 52 83 28 45 1010.1 1007.3 0.8
19/01:50pm 28.8 24.3 20.3 60 5.7 N 44 70 24 38 1009.7 1006.9 0.2
19/01:33pm 33.5 31.6 16.8 36 10.8 NE 22 72 12 39 1008.5 1005.7 0.0
19/01:30pm 38.2 36.7 14.1 24 15.2 ENE 15 22 8 12 1008.1 1005.3 0.0
19/01:00pm 38.8 36.7 14.6 24 15.4 NNE 19 30 10 16 1008.9 1006.0 0.0
19/12:30pm 38.5 36.3 14.3 23 15.3 NE 19 30 10 16 1009.9 1007.1 0.0
19/12:00pm 38.0 35.8 14.5 24 14.9 ENE 19 26 10 14 1010.4 1007.6 0.0
19/11:30am 37.7 34.9 14.3 25 14.8 NNE 22 32 12 17 1010.8 1008.0 0.0
19/11:00am 37.2 33.9 13.9 25 14.6 ENE 24 48 13 26 1011.1 1008.3 0.0
19/10:30am 36.6 33.3 14.0 26 14.2 NE 24 37 13 20 1011.5 1008.6 0.0
19/10:00am 36.9 32.7 13.6 24 14.5 ENE 28 44 15 24 1011.8 1008.9 0.0
19/09:30am 35.4 31.2 13.5 26 13.6 NE 28 41 15 22 1011.9 1009.0 0.0
19/09:08am 34.8 30.4 13.0 26 13.4 NE 28 46 15 25 1012.1 1009.3 0.0
19/09:00am 34.9 30.2 13.1 27 13.4 ENE 30 43 16 23 1012.1 1009.3 0.0
19/08:30am 33.8 28.9 12.7 27 12.9 ENE 30 43 16 23 1012.0 1009.2 0.0
19/08:00am 32.5 27.3 11.6 28 12.5 ENE 30 39 16 21 1012.1 1009.3 0.0
19/07:30am 31.6 26.4 10.3 27 12.4 ENE 28 41 15 22 1012.3 1009.5 0.0
19/07:00am 30.2 25.1 9.1 27 12.0 E 26 33 14 18 1012.1 1009.3 0.0
19/06:30am 29.1 24.1 8.2 27 11.6 E 24 32 13 17 1011.8 1008.9 0.0

Other Formats:

Comma delimited format used in spreadsheet applications
http://www.bom.gov.au/fwo/IDW60801/IDW60801.94429.axf

JavaScript Object Notation format (JSON) in row-major order
http://www.bom.gov.au/fwo/IDW60801/IDW60801.94429.json